Time;durP1;ratioP1;P1;durP2;ratioP2;P2;SDS_P1;SDS_P2;PMS_P1;PMS_P2;Temp;Humidity;BMP_temperature;BMP_pressure;BME280_temperature;BME280_humidity;BME280_pressure;Samples;Min_cycle;Max_cycle;Signal;HPM_P1;HPM_P2
2021/10/18 00:00:56;;;;;;;10.93;8.55;;;11.20;94.90;;;;;;5096578;28;20204;-75
2021/10/18 00:03:22;;;;;;;14.57;8.93;;;11.20;94.90;;;;;;5074861;28;20667;-75
2021/10/18 00:05:48;;;;;;;10.98;8.18;;;11.20;95.00;;;;;;5093149;28;20194;-75
2021/10/18 00:08:14;;;;;;;13.32;8.63;;;11.20;95.00;;;;;;5096496;28;20222;-75
2021/10/18 00:10:40;;;;;;;13.18;8.10;;;11.20;95.10;;;;;;5099894;28;20277;-75
2021/10/18 00:13:06;;;;;;;11.88;8.05;;;11.20;95.00;;;;;;5073553;28;20205;-75
2021/10/18 00:15:32;;;;;;;13.05;6.97;;;11.20;95.20;;;;;;5092865;28;20209;-75
2021/10/18 00:17:59;;;;;;;10.60;7.18;;;11.20;95.20;;;;;;5095944;28;20185;-75
2021/10/18 00:20:26;;;;;;;10.70;7.45;;;11.20;95.20;;;;;;5078472;28;20284;-75
2021/10/18 00:22:52;;;;;;;12.60;7.75;;;11.20;95.10;;;;;;5092014;28;20794;-75
2021/10/18 00:25:19;;;;;;;12.77;7.97;;;11.20;95.10;;;;;;5094502;28;20177;-75
2021/10/18 00:27:45;;;;;;;12.98;8.80;;;11.20;95.00;;;;;;5096695;28;20206;-76
2021/10/18 00:30:11;;;;;;;9.07;7.28;;;11.30;95.10;;;;;;5100432;28;20193;-75
2021/10/18 00:32:37;;;;;;;16.52;8.38;;;11.20;95.00;;;;;;5068797;28;20596;-75
2021/10/18 00:35:04;;;;;;;9.80;7.53;;;11.20;95.00;;;;;;5097477;28;20192;-75
2021/10/18 00:37:30;;;;;;;12.25;8.30;;;11.20;95.00;;;;;;5092143;28;20178;-75
2021/10/18 00:39:56;;;;;;;12.90;7.72;;;11.20;95.00;;;;;;5094397;28;20190;-75
2021/10/18 00:42:22;;;;;;;8.65;6.80;;;11.20;95.10;;;;;;5095713;28;20185;-75
2021/10/18 00:44:49;;;;;;;11.70;7.60;;;11.20;95.10;;;;;;5092519;28;20710;-75
2021/10/18 00:47:17;;;;;;;11.25;7.13;;;11.20;95.10;;;;;;5072200;28;20186;-75
2021/10/18 00:49:43;;;;;;;9.55;7.13;;;11.20;95.10;;;;;;5098857;28;20177;-75
2021/10/18 00:52:09;;;;;;;7.70;5.95;;;11.20;95.20;;;;;;5092027;28;21335;-75
2021/10/18 00:54:35;;;;;;;7.90;5.80;;;11.20;95.20;;;;;;5098616;28;20178;-75
2021/10/18 00:57:01;;;;;;;8.18;6.55;;;11.20;95.20;;;;;;5091874;28;20181;-75
2021/10/18 00:59:27;;;;;;;8.07;6.07;;;11.20;95.30;;;;;;5096978;28;20182;-75
2021/10/18 01:01:54;;;;;;;9.60;6.70;;;11.20;95.20;;;;;;5089026;28;20182;-75
2021/10/18 01:04:20;;;;;;;9.18;5.70;;;11.20;95.50;;;;;;5096438;28;20184;-76
2021/10/18 01:06:46;;;;;;;8.27;6.25;;;11.20;95.40;;;;;;5092200;28;20231;-75
2021/10/18 01:09:12;;;;;;;8.60;5.85;;;11.20;95.40;;;;;;5073122;28;20225;-76
2021/10/18 01:11:37;;;;;;;7.07;5.75;;;11.20;95.30;;;;;;5094773;28;20175;-76
2021/10/18 01:14:03;;;;;;;8.43;5.38;;;11.20;95.20;;;;;;5091865;28;20605;-75
2021/10/18 01:16:29;;;;;;;7.88;5.50;;;11.30;95.20;;;;;;5096234;28;20170;-76
2021/10/18 01:18:55;;;;;;;6.88;5.00;;;11.30;95.10;;;;;;5095823;28;20264;-75
2021/10/18 01:21:21;;;;;;;6.78;5.63;;;11.30;95.20;;;;;;5092293;28;20793;-76
2021/10/18 01:23:47;;;;;;;10.05;5.03;;;11.30;95.10;;;;;;5067787;28;20193;-76
2021/10/18 01:26:12;;;;;;;7.60;5.30;;;11.30;95.00;;;;;;5087197;28;20269;-76
2021/10/18 01:28:38;;;;;;;7.53;5.25;;;11.30;95.10;;;;;;5076272;28;20806;-76
2021/10/18 01:31:04;;;;;;;7.18;5.32;;;11.30;95.10;;;;;;5069691;28;20182;-76
2021/10/18 01:33:30;;;;;;;7.75;5.05;;;11.30;95.00;;;;;;5095134;28;20655;-75
2021/10/18 01:35:55;;;;;;;6.72;5.07;;;11.30;95.10;;;;;;5088485;28;20182;-75
2021/10/18 01:38:21;;;;;;;9.27;5.53;;;11.30;95.00;;;;;;5094715;28;20182;-76
2021/10/18 01:40:47;;;;;;;9.13;4.82;;;11.30;95.10;;;;;;5095491;28;20216;-76
2021/10/18 01:43:13;;;;;;;7.63;5.55;;;11.30;95.10;;;;;;5094628;28;20177;-74
2021/10/18 01:45:38;;;;;;;5.93;5.38;;;11.30;95.10;;;;;;5090054;28;20182;-75
2021/10/18 01:48:04;;;;;;;8.23;5.07;;;11.30;95.10;;;;;;5089691;28;20205;-75
2021/10/18 01:50:31;;;;;;;7.35;5.53;;;11.40;95.10;;;;;;5082632;28;20186;-75
2021/10/18 01:52:57;;;;;;;8.15;5.00;;;11.40;95.10;;;;;;5085662;28;20179;-75
2021/10/18 01:55:23;;;;;;;13.82;6.18;;;11.40;95.00;;;;;;5091772;28;20190;-75
2021/10/18 01:57:51;;;;;;;5.72;4.68;;;11.40;95.20;;;;;;5076078;28;20554;-75
2021/10/18 02:00:17;;;;;;;10.77;5.38;;;11.40;95.10;;;;;;5077326;28;20191;-75
2021/10/18 02:02:43;;;;;;;9.35;5.15;;;11.40;95.10;;;;;;5094414;28;20185;-75
2021/10/18 02:05:09;;;;;;;6.82;4.75;;;11.40;95.10;;;;;;5103117;28;20177;-75
2021/10/18 02:07:35;;;;;;;8.50;6.05;;;11.40;95.10;;;;;;5096374;28;20713;-75
2021/10/18 02:10:01;;;;;;;7.18;4.70;;;11.40;95.00;;;;;;5098642;28;20185;-75
2021/10/18 02:12:28;;;;;;;8.63;6.05;;;11.40;95.00;;;;;;5076956;28;20290;-75
2021/10/18 02:14:54;;;;;;;7.40;5.03;;;11.50;94.80;;;;;;5096845;28;20185;-75
2021/10/18 02:17:20;;;;;;;4.88;4.20;;;11.50;94.90;;;;;;5095552;28;20178;-75
2021/10/18 02:19:45;;;;;;;9.75;5.90;;;11.50;94.70;;;;;;5096470;28;20186;-75
2021/10/18 02:22:11;;;;;;;10.30;5.53;;;11.50;94.60;;;;;;5071562;28;20391;-75
2021/10/18 02:24:37;;;;;;;6.53;4.88;;;11.50;94.60;;;;;;5080359;28;21584;-75
2021/10/18 02:27:03;;;;;;;7.35;5.50;;;11.50;94.50;;;;;;5093834;28;20181;-75
2021/10/18 02:29:29;;;;;;;4.55;4.15;;;11.50;94.50;;;;;;5094976;28;20221;-75
2021/10/18 02:31:55;;;;;;;5.55;4.78;;;11.50;94.50;;;;;;5075582;28;20185;-76
2021/10/18 02:34:20;;;;;;;5.10;4.60;;;11.50;94.60;;;;;;5089365;28;20197;-75
2021/10/18 02:36:46;;;;;;;7.20;5.65;;;11.50;94.60;;;;;;5094406;28;20177;-75
2021/10/18 02:39:12;;;;;;;5.63;4.90;;;11.50;94.70;;;;;;5090587;28;20687;-75
2021/10/18 02:41:38;;;;;;;6.30;5.15;;;11.50;94.70;;;;;;5078142;28;20189;-75
2021/10/18 02:44:04;;;;;;;6.45;4.55;;;11.50;94.70;;;;;;5076771;28;20324;-75
2021/10/18 02:46:29;;;;;;;10.20;5.00;;;11.50;94.60;;;;;;5093628;28;20182;-75
2021/10/18 02:48:55;;;;;;;7.18;5.57;;;11.60;94.70;;;;;;5090114;28;20646;-75
2021/10/18 02:51:21;;;;;;;6.30;4.15;;;11.60;94.60;;;;;;5078509;28;21052;-75
2021/10/18 02:53:46;;;;;;;6.03;5.00;;;11.60;94.60;;;;;;5071144;28;20644;-75
2021/10/18 02:56:12;;;;;;;5.63;5.10;;;11.60;94.60;;;;;;5099246;28;20677;-75
2021/10/18 02:58:38;;;;;;;5.07;4.57;;;11.60;94.60;;;;;;5074905;28;20585;-75
2021/10/18 03:01:04;;;;;;;6.07;5.07;;;11.60;94.70;;;;;;5075887;28;20190;-75
2021/10/18 03:03:29;;;;;;;10.20;5.63;;;11.60;94.70;;;;;;5097776;28;20662;-75
2021/10/18 03:05:55;;;;;;;7.00;5.05;;;11.60;94.70;;;;;;5096870;28;20182;-75
2021/10/18 03:08:21;;;;;;;4.93;4.38;;;11.60;94.70;;;;;;5094508;28;20218;-75
2021/10/18 03:10:46;;;;;;;6.90;5.35;;;11.60;94.70;;;;;;5094927;28;20212;-75
2021/10/18 03:13:14;;;;;;;5.30;4.85;;;11.60;94.70;;;;;;5076226;28;20650;-75
2021/10/18 03:15:40;;;;;;;6.35;4.78;;;11.60;94.80;;;;;;5081453;28;20230;-75
2021/10/18 03:18:06;;;;;;;7.50;5.47;;;11.60;94.90;;;;;;5092118;28;20182;-75
2021/10/18 03:20:32;;;;;;;7.03;4.63;;;11.60;95.00;;;;;;5097719;28;20186;-75
2021/10/18 03:22:57;;;;;;;6.03;4.20;;;11.60;95.00;;;;;;5093652;28;20183;-75
2021/10/18 03:25:23;;;;;;;7.60;5.55;;;11.60;94.90;;;;;;5095701;28;20281;-75
2021/10/18 03:27:49;;;;;;;6.68;4.78;;;11.60;94.90;;;;;;5090552;28;20299;-75
2021/10/18 03:30:15;;;;;;;7.40;4.95;;;11.50;94.70;;;;;;5096239;28;20198;-75
2021/10/18 03:32:41;;;;;;;6.05;5.47;;;11.50;94.70;;;;;;5095548;28;20177;-75
2021/10/18 03:35:07;;;;;;;10.13;5.05;;;11.50;94.80;;;;;;5095445;28;20198;-76
2021/10/18 03:37:33;;;;;;;7.35;5.00;;;11.50;94.70;;;;;;5080372;28;20265;-75
2021/10/18 03:39:59;;;;;;;6.97;5.53;;;11.50;94.90;;;;;;5075931;28;20282;-76
2021/10/18 03:42:25;;;;;;;7.18;4.75;;;11.40;94.90;;;;;;5081713;28;20327;-75
2021/10/18 03:44:51;;;;;;;8.13;5.68;;;11.40;94.90;;;;;;5089305;28;20194;-76
2021/10/18 03:47:18;;;;;;;6.38;5.18;;;11.40;94.90;;;;;;5092410;28;20186;-76
2021/10/18 03:49:44;;;;;;;8.73;5.40;;;11.30;95.10;;;;;;5088588;28;20182;-75
2021/10/18 03:52:10;;;;;;;7.45;5.53;;;11.30;95.10;;;;;;5090988;28;20984;-75
2021/10/18 03:54:36;;;;;;;5.45;4.88;;;11.30;95.20;;;;;;5090701;28;20189;-76
2021/10/18 03:57:03;;;;;;;5.95;5.35;;;11.30;95.30;;;;;;5095262;28;20179;-76
2021/10/18 03:59:28;;;;;;;6.93;5.88;;;11.30;95.40;;;;;;5089160;28;20194;-76
2021/10/18 04:01:54;;;;;;;6.43;4.78;;;11.20;95.30;;;;;;5071045;28;20564;-75
2021/10/18 04:04:20;;;;;;;6.65;5.03;;;11.20;95.40;;;;;;5097690;28;20178;-76
2021/10/18 04:06:45;;;;;;;7.13;5.07;;;11.20;95.50;;;;;;5075491;28;20182;-75
2021/10/18 04:09:12;;;;;;;10.85;5.43;;;11.20;95.50;;;;;;5074054;28;20210;-75
2021/10/18 04:11:38;;;;;;;6.30;4.70;;;11.20;95.50;;;;;;5094160;28;20185;-74
2021/10/18 04:14:08;;;;;;;8.40;5.90;;;11.20;95.50;;;;;;5096968;28;20255;-75
2021/10/18 04:16:34;;;;;;;9.27;5.60;;;11.10;95.70;;;;;;5074560;28;20242;-75
2021/10/18 04:19:00;;;;;;;5.78;4.97;;;11.10;95.60;;;;;;5093737;28;20675;-76
2021/10/18 04:21:26;;;;;;;11.48;5.45;;;11.10;95.70;;;;;;5091697;28;20249;-76
2021/10/18 04:23:53;;;;;;;7.97;6.13;;;11.10;95.70;;;;;;5093499;28;20656;-76
2021/10/18 04:26:18;;;;;;;8.10;5.78;;;11.10;95.80;;;;;;5093539;28;20174;-75
2021/10/18 04:28:45;;;;;;;7.85;5.97;;;11.10;95.70;;;;;;5073539;28;20225;-76
2021/10/18 04:31:10;;;;;;;6.10;5.40;;;11.10;95.70;;;;;;5094149;28;20574;-76
2021/10/18 04:33:36;;;;;;;10.25;5.55;;;11.20;95.80;;;;;;5093176;28;20189;-76
2021/10/18 04:36:02;;;;;;;10.85;6.38;;;11.10;95.70;;;;;;5092148;28;20201;-76
2021/10/18 04:38:28;;;;;;;8.48;5.57;;;11.10;95.80;;;;;;5075006;28;20715;-75
2021/10/18 04:40:54;;;;;;;8.30;4.95;;;11.10;95.90;;;;;;5077216;28;20273;-76
2021/10/18 04:43:19;;;;;;;7.25;5.43;;;11.10;95.80;;;;;;5087533;28;20178;-70
2021/10/18 04:45:45;;;;;;;6.38;5.18;;;11.10;95.90;;;;;;5091633;28;20620;-71
2021/10/18 04:48:11;;;;;;;7.50;5.88;;;11.10;95.80;;;;;;5098096;28;20217;-70
2021/10/18 04:50:37;;;;;;;6.80;5.18;;;11.20;95.80;;;;;;5073620;28;20186;-70
2021/10/18 04:53:02;;;;;;;7.20;5.05;;;11.20;95.80;;;;;;5090546;28;20284;-71
2021/10/18 04:55:28;;;;;;;5.30;4.82;;;11.20;95.80;;;;;;5076849;28;20576;-70
2021/10/18 04:58:07;;;;;;;6.30;5.30;;;11.20;95.70;;;;;;5085997;28;20194;-71
2021/10/18 05:00:36;;;;;;;9.25;6.13;;;11.20;95.50;;;;;;5069030;28;20226;-75
2021/10/18 05:03:03;;;;;;;10.38;6.15;;;11.20;95.60;;;;;;5088774;28;20658;-76
2021/10/18 05:05:29;;;;;;;12.38;6.43;;;11.20;95.70;;;;;;5072921;28;20182;-76
2021/10/18 05:08:08;;;;;;;7.93;6.05;;;11.20;95.80;;;;;;5072032;28;20285;-75
2021/10/18 05:10:35;;;;;;;5.97;4.28;;;11.20;95.70;;;;;;5076283;28;20181;-75
2021/10/18 05:13:02;;;;;;;8.90;5.90;;;11.20;95.80;;;;;;5071363;28;20667;-76
2021/10/18 05:15:28;;;;;;;9.20;5.40;;;11.20;95.90;;;;;;5076865;28;20197;-75
2021/10/18 05:17:54;;;;;;;8.05;6.22;;;11.20;95.70;;;;;;5092826;28;20212;-74
2021/10/18 05:20:20;;;;;;;8.63;6.07;;;11.20;95.80;;;;;;5095955;28;20214;-75
2021/10/18 05:22:46;;;;;;;12.85;7.03;;;11.20;95.70;;;;;;5094098;28;20189;-77
2021/10/18 05:25:12;;;;;;;12.20;6.28;;;11.20;96.00;;;;;;5094299;28;20205;-74
2021/10/18 05:27:38;;;;;;;10.02;6.40;;;11.20;96.00;;;;;;5088569;28;20210;-78
2021/10/18 05:30:10;;;;;;;11.30;6.57;;;11.20;96.00;;;;;;5075843;28;20189;-74
2021/10/18 05:32:36;;;;;;;11.15;6.35;;;11.20;96.00;;;;;;5071702;28;20185;-75
2021/10/18 05:35:03;;;;;;;7.38;6.10;;;11.20;96.10;;;;;;5093251;28;20190;-73
2021/10/18 05:37:29;;;;;;;11.43;6.93;;;11.20;96.00;;;;;;5077008;28;20196;-72
2021/10/18 05:39:55;;;;;;;9.00;6.13;;;11.30;95.90;;;;;;5075607;28;20182;-72
2021/10/18 05:42:21;;;;;;;8.18;6.25;;;11.30;95.90;;;;;;5079933;28;20756;-72
2021/10/18 05:44:48;;;;;;;10.50;6.15;;;11.30;96.00;;;;;;5077573;28;20244;-71
2021/10/18 05:47:14;;;;;;;9.43;6.57;;;11.30;95.90;;;;;;5079840;28;20182;-69
2021/10/18 05:49:39;;;;;;;8.32;6.15;;;11.30;95.80;;;;;;5096005;28;20190;-69
2021/10/18 05:52:05;;;;;;;12.23;6.65;;;11.30;95.80;;;;;;5080286;28;20231;-69
2021/10/18 05:54:32;;;;;;;6.45;5.32;;;11.20;95.80;;;;;;5100091;28;20174;-69
2021/10/18 05:56:57;;;;;;;8.20;6.20;;;11.20;95.80;;;;;;5081091;28;20178;-70
2021/10/18 05:59:23;;;;;;;11.10;6.68;;;11.20;95.80;;;;;;5082715;28;20564;-69
2021/10/18 06:01:49;;;;;;;13.05;7.82;;;11.20;95.80;;;;;;5080743;28;20174;-71
2021/10/18 06:04:15;;;;;;;12.60;7.90;;;11.20;95.90;;;;;;5095605;28;20182;-70
2021/10/18 06:06:41;;;;;;;14.27;6.78;;;11.20;95.90;;;;;;5073972;28;20178;-69
2021/10/18 06:09:10;;;;;;;7.60;6.15;;;11.20;95.90;;;;;;5096603;28;20263;-70
2021/10/18 06:11:35;;;;;;;9.75;5.97;;;11.30;95.80;;;;;;5080947;28;20173;-69
2021/10/18 06:14:01;;;;;;;8.05;6.13;;;11.40;95.80;;;;;;5077715;28;20186;-70
2021/10/18 06:16:27;;;;;;;10.57;6.05;;;11.40;95.70;;;;;;5099342;28;20182;-70
2021/10/18 06:18:53;;;;;;;7.47;5.63;;;11.50;95.70;;;;;;5094491;28;20832;-70
2021/10/18 06:21:19;;;;;;;8.57;5.82;;;11.50;95.30;;;;;;5094006;28;20569;-70
2021/10/18 06:23:44;;;;;;;13.88;6.45;;;11.50;95.20;;;;;;5090514;28;20182;-69
2021/10/18 06:26:10;;;;;;;9.35;6.15;;;11.60;95.10;;;;;;5101207;28;20836;-70
2021/10/18 06:28:41;;;;;;;7.38;5.07;;;11.60;95.00;;;;;;5067899;28;20218;-68
2021/10/18 06:31:08;;;;;;;6.32;5.63;;;11.70;94.80;;;;;;5097330;28;20284;-70
2021/10/18 06:33:34;;;;;;;7.75;5.28;;;11.60;94.60;;;;;;5095492;28;20186;-70
2021/10/18 06:36:01;;;;;;;6.40;5.63;;;11.70;94.50;;;;;;5098079;28;20205;-68
2021/10/18 06:38:26;;;;;;;10.15;6.82;;;11.70;94.30;;;;;;5096443;28;20905;-68
2021/10/18 06:40:52;;;;;;;6.32;4.88;;;11.70;94.20;;;;;;5097867;28;20265;-68
2021/10/18 06:43:19;;;;;;;10.27;5.32;;;11.80;94.00;;;;;;5099337;28;20200;-68
2021/10/18 06:45:46;;;;;;;5.90;4.20;;;11.80;93.90;;;;;;5091819;28;20671;-68
2021/10/18 06:48:15;;;;;;;10.20;4.95;;;11.90;93.50;;;;;;5095721;28;20204;-69
2021/10/18 06:50:43;;;;;;;7.90;5.07;;;11.90;93.50;;;;;;5075526;28;20646;-69
2021/10/18 06:53:17;;;;;;;5.47;4.15;;;11.90;93.40;;;;;;5107334;27;20185;-69
2021/10/18 06:55:43;;;;;;;9.32;5.55;;;12.00;93.40;;;;;;5074335;28;20190;-68
2021/10/18 06:58:09;;;;;;;9.85;5.38;;;12.00;93.40;;;;;;5087656;28;20192;-69
2021/10/18 07:00:36;;;;;;;5.57;4.85;;;12.10;93.50;;;;;;5094883;28;20264;-69
2021/10/18 07:03:02;;;;;;;7.97;5.65;;;12.20;93.60;;;;;;5076123;28;20745;-69
2021/10/18 07:05:28;;;;;;;11.38;7.10;;;12.30;93.40;;;;;;5095729;28;20182;-69
2021/10/18 07:07:54;;;;;;;8.35;6.05;;;12.40;93.00;;;;;;5096838;28;20250;-68
2021/10/18 07:10:20;;;;;;;15.50;7.10;;;12.40;92.90;;;;;;5076126;28;20302;-69
2021/10/18 07:12:45;;;;;;;10.15;6.63;;;12.50;92.50;;;;;;5098542;28;20182;-69
2021/10/18 07:15:11;;;;;;;12.57;7.20;;;12.50;92.60;;;;;;5093998;28;20210;-69
2021/10/18 07:17:37;;;;;;;9.70;6.88;;;12.60;92.50;;;;;;5068166;28;20186;-69
2021/10/18 07:20:05;;;;;;;9.10;5.97;;;12.70;92.40;;;;;;5094657;28;20175;-68
2021/10/18 07:22:36;;;;;;;8.10;5.20;;;12.70;92.50;;;;;;5097171;28;20174;-68
2021/10/18 07:25:04;;;;;;;6.28;5.13;;;12.80;92.60;;;;;;5074245;28;20201;-68
2021/10/18 07:27:30;;;;;;;7.43;5.80;;;12.90;92.50;;;;;;5077119;28;20178;-68
2021/10/18 07:29:56;;;;;;;8.65;5.30;;;13.00;92.30;;;;;;5089422;28;20175;-68
2021/10/18 07:32:23;;;;;;;9.70;6.55;;;13.10;92.40;;;;;;5077491;28;20182;-68
2021/10/18 07:34:49;;;;;;;7.63;6.53;;;13.20;91.70;;;;;;5094317;28;20238;-69
2021/10/18 07:37:18;;;;;;;8.38;6.75;;;13.30;91.50;;;;;;5076037;28;20648;-68
2021/10/18 07:39:44;;;;;;;10.48;7.00;;;13.30;90.80;;;;;;5074962;28;20170;-69
2021/10/18 07:42:14;;;;;;;12.30;6.45;;;13.40;90.80;;;;;;5079756;28;20184;-69
2021/10/18 07:44:40;;;;;;;6.47;5.43;;;13.40;90.80;;;;;;5074412;28;20568;-69
2021/10/18 07:47:06;;;;;;;8.65;5.70;;;13.50;90.50;;;;;;5078282;28;20181;-69
2021/10/18 07:49:36;;;;;;;11.00;6.50;;;13.50;90.50;;;;;;5075437;28;20214;-69
2021/10/18 07:52:03;;;;;;;7.28;5.75;;;13.50;90.00;;;;;;5097525;28;20202;-68
2021/10/18 07:54:30;;;;;;;9.48;4.75;;;13.50;90.10;;;;;;5078464;28;20196;-68
2021/10/18 07:56:56;;;;;;;8.40;5.65;;;13.60;90.20;;;;;;5074409;28;20186;-68
2021/10/18 07:59:22;;;;;;;6.38;5.50;;;13.60;89.90;;;;;;5094329;28;20265;-69
2021/10/18 08:01:47;;;;;;;5.82;4.90;;;13.70;89.80;;;;;;5078984;28;20557;-68
2021/10/18 08:04:13;;;;;;;5.38;4.88;;;13.70;89.80;;;;;;5097791;28;20185;-68
2021/10/18 08:06:39;;;;;;;5.32;4.38;;;13.70;89.60;;;;;;5083511;28;20270;-68
2021/10/18 08:09:07;;;;;;;4.30;3.90;;;13.80;89.50;;;;;;5078000;28;20259;-70
2021/10/18 08:11:33;;;;;;;6.50;4.70;;;13.80;89.30;;;;;;5076264;28;20174;-70
2021/10/18 08:13:59;;;;;;;7.13;4.45;;;13.80;88.80;;;;;;5078341;28;20232;-70
2021/10/18 08:16:25;;;;;;;6.05;5.15;;;13.90;88.50;;;;;;5082411;28;20192;-69
2021/10/18 08:18:52;;;;;;;4.18;3.78;;;13.90;88.50;;;;;;5100172;28;20185;-70
2021/10/18 08:21:18;;;;;;;4.95;4.50;;;13.90;88.90;;;;;;5093211;28;20268;-70
2021/10/18 08:23:43;;;;;;;5.00;4.30;;;13.90;89.00;;;;;;5072936;28;20265;-70
2021/10/18 08:26:09;;;;;;;5.25;4.75;;;14.00;89.00;;;;;;5076207;28;20289;-70
2021/10/18 08:28:35;;;;;;;10.38;5.25;;;14.00;88.20;;;;;;5095734;28;20213;-70
2021/10/18 08:31:00;;;;;;;5.43;4.78;;;14.10;87.80;;;;;;5091710;28;20186;-69
2021/10/18 08:33:26;;;;;;;7.10;5.00;;;14.10;87.60;;;;;;5079973;28;20181;-70
2021/10/18 08:35:52;;;;;;;5.55;4.70;;;14.10;88.00;;;;;;5099615;28;20843;-70
2021/10/18 08:38:46;;;;;;;5.32;4.57;;;14.10;88.40;;;;;;5093367;28;20191;-69
2021/10/18 08:46:09;;;;;;;6.38;5.15;;;14.50;88.60;;;;;;5088134;28;20188;-70
2021/10/18 08:48:35;;;;;;;9.63;5.55;;;14.60;87.50;;;;;;5076463;28;20210;-70
2021/10/18 08:51:03;;;;;;;7.40;5.57;;;14.60;85.80;;;;;;5089836;28;20236;-70
2021/10/18 08:53:28;;;;;;;6.43;4.82;;;14.70;85.50;;;;;;5074017;28;20178;-70
2021/10/18 08:55:54;;;;;;;5.90;4.93;;;14.70;85.70;;;;;;5095060;28;20265;-70
2021/10/18 08:58:20;;;;;;;6.70;5.53;;;14.90;85.40;;;;;;5094788;28;20265;-70
2021/10/18 09:00:53;;;;;;;10.60;5.90;;;15.00;85.30;;;;;;5094120;28;20254;-70
2021/10/18 09:03:25;;;;;;;7.07;5.07;;;15.00;85.00;;;;;;5094817;28;20174;-70
2021/10/18 09:06:12;;;;;;;7.47;5.28;;;15.00;84.50;;;;;;5094111;28;20182;-70
2021/10/18 09:08:49;;;;;;;5.93;5.32;;;15.10;84.60;;;;;;5076830;28;20295;-70
2021/10/18 09:11:20;;;;;;;6.95;5.65;;;15.20;84.40;;;;;;5074044;28;20189;-70
2021/10/18 09:13:53;;;;;;;7.25;5.45;;;15.20;84.30;;;;;;5069187;28;20189;-69
2021/10/18 09:16:30;;;;;;;9.00;6.13;;;15.20;84.10;;;;;;5075936;28;20259;-71
2021/10/18 09:19:05;;;;;;;7.45;6.30;;;15.30;84.20;;;;;;5089438;28;20655;-70
2021/10/18 09:21:34;;;;;;;8.93;5.90;;;15.30;84.20;;;;;;5073198;28;20189;-70
2021/10/18 09:24:01;;;;;;;6.45;5.68;;;15.40;84.20;;;;;;5072680;28;20185;-70
2021/10/18 09:26:28;;;;;;;7.15;5.70;;;15.40;84.10;;;;;;5069939;28;20575;-70
2021/10/18 09:28:55;;;;;;;6.30;5.05;;;15.50;84.10;;;;;;5076566;28;20236;-70
2021/10/18 09:31:21;;;;;;;5.65;5.10;;;15.50;83.40;;;;;;5073286;28;20578;-70
2021/10/18 09:33:57;;;;;;;6.05;5.00;;;15.60;83.00;;;;;;5074198;28;20193;-70
2021/10/18 09:36:29;;;;;;;5.32;4.82;;;15.60;82.60;;;;;;5072568;28;20196;-70
2021/10/18 09:39:28;;;;;;;8.70;5.85;;;15.70;82.90;;;;;;5093843;28;20178;-70
2021/10/18 09:41:58;;;;;;;7.97;5.72;;;15.80;83.00;;;;;;5090072;28;20181;-70
2021/10/18 09:44:35;;;;;;;11.27;6.95;;;15.80;82.00;;;;;;5093227;28;20243;-70
2021/10/18 09:47:18;;;;;;;9.35;6.85;;;15.80;81.90;;;;;;5095626;28;20205;-70
2021/10/18 10:54:05;;;;;;;8.07;5.47;;;15.40;82.60;;;;;;5097068;28;20731;-70
2021/10/18 10:56:44;;;;;;;6.93;6.03;;;15.40;82.70;;;;;;5073081;28;20189;-69
2021/10/18 10:59:23;;;;;;;14.60;5.63;;;15.40;83.00;;;;;;5115838;27;20182;-70
2021/10/18 11:02:09;;;;;;;8.80;6.28;;;15.40;82.50;;;;;;5094927;28;20175;-70
2021/10/18 11:04:41;;;;;;;8.85;5.40;;;15.40;83.10;;;;;;5079121;28;20183;-70
2021/10/18 11:07:39;;;;;;;9.77;5.82;;;15.50;83.40;;;;;;5094181;28;20252;-69
2021/10/18 11:10:06;;;;;;;8.30;5.22;;;15.70;83.00;;;;;;5096291;28;20258;-70
2021/10/18 11:12:35;;;;;;;5.97;5.03;;;15.80;82.90;;;;;;5077334;28;20189;-71
2021/10/18 11:15:18;;;;;;;6.28;5.38;;;15.90;82.60;;;;;;5075520;28;20212;-70
2021/10/18 11:17:49;;;;;;;5.57;5.05;;;16.00;82.00;;;;;;5092117;28;21794;-68
2021/10/18 11:20:20;;;;;;;6.80;5.25;;;16.00;81.80;;;;;;5095873;28;20186;-70
2021/10/18 11:22:54;;;;;;;5.78;4.80;;;16.10;81.80;;;;;;5095433;28;20205;-69
2021/10/18 11:25:24;;;;;;;7.40;6.00;;;16.10;81.10;;;;;;5075161;28;20571;-69
2021/10/18 11:27:58;;;;;;;6.07;4.97;;;16.10;81.70;;;;;;5078082;28;20243;-70
2021/10/18 11:30:27;;;;;;;7.20;5.38;;;16.20;81.10;;;;;;5093716;28;20632;-70
2021/10/18 11:32:55;;;;;;;6.72;5.50;;;16.10;81.30;;;;;;5075128;28;20189;-70
2021/10/18 11:35:21;;;;;;;5.85;5.35;;;16.10;80.90;;;;;;5074318;28;20194;-70
2021/10/18 11:38:02;;;;;;;8.10;5.32;;;16.10;81.10;;;;;;5093176;28;20476;-69
2021/10/18 11:40:31;;;;;;;5.63;5.13;;;16.00;81.40;;;;;;5095966;28;20261;-70
2021/10/18 11:43:10;;;;;;;6.05;4.88;;;16.10;81.50;;;;;;5073875;28;20258;-70
2021/10/18 11:45:45;;;;;;;6.65;4.53;;;16.10;81.20;;;;;;5093041;28;20174;-70
2021/10/18 11:48:20;;;;;;;5.97;4.72;;;16.20;81.30;;;;;;5072595;28;20208;-69
2021/10/18 11:50:53;;;;;;;5.70;5.15;;;16.20;81.40;;;;;;5095146;28;20285;-69
2021/10/18 11:53:33;;;;;;;8.70;3.90;;;16.20;80.70;;;;;;5076638;28;20218;-70
2021/10/18 11:56:01;;;;;;;5.13;4.63;;;16.20;80.70;;;;;;5087069;28;20207;-70
2021/10/18 11:58:31;;;;;;;4.53;4.13;;;16.30;81.20;;;;;;5095821;28;20662;-70
2021/10/18 12:00:59;;;;;;;4.05;3.65;;;16.40;81.10;;;;;;5092969;28;21480;-69
2021/10/18 12:03:26;;;;;;;4.00;3.80;;;16.50;81.20;;;;;;5092547;28;20192;-69
2021/10/18 12:05:54;;;;;;;4.22;3.83;;;16.50;79.60;;;;;;5094973;28;20178;-69
2021/10/18 12:08:27;;;;;;;3.75;3.47;;;16.60;80.50;;;;;;5072936;28;20221;-69
2021/10/18 12:10:53;;;;;;;4.88;3.22;;;16.60;78.90;;;;;;5092414;28;20691;-69
2021/10/18 12:13:26;;;;;;;3.63;3.35;;;16.70;79.40;;;;;;5092164;28;20186;-71
2021/10/18 12:16:19;;;;;;;4.45;3.80;;;16.80;79.30;;;;;;5072292;28;20226;-71
2021/10/18 12:18:59;;;;;;;4.45;3.33;;;16.80;79.00;;;;;;5073953;28;20274;-69
2021/10/18 12:21:36;;;;;;;3.75;3.45;;;16.80;78.80;;;;;;5102299;27;20229;-69
2021/10/18 12:24:04;;;;;;;3.45;3.20;;;16.80;78.90;;;;;;5071721;28;20753;-69
2021/10/18 12:26:42;;;;;;;6.13;3.85;;;16.60;78.70;;;;;;5092705;28;20181;-69
2021/10/18 12:29:10;;;;;;;3.00;2.80;;;16.50;78.70;;;;;;5097256;28;20304;-70
2021/10/18 12:31:41;;;;;;;3.70;2.60;;;16.30;79.60;;;;;;5087726;28;20193;-69
2021/10/18 12:34:18;;;;;;;3.28;3.15;;;16.30;80.30;;;;;;5090817;27;20223;-69
2021/10/18 12:36:56;;;;;;;2.95;2.85;;;16.30;80.50;;;;;;5086362;28;20182;-70
2021/10/18 12:39:31;;;;;;;2.30;2.20;;;16.40;80.00;;;;;;5097152;28;20181;-70
2021/10/18 12:41:56;;;;;;;2.70;2.58;;;16.40;79.80;;;;;;5085465;28;20264;-70
2021/10/18 12:44:30;;;;;;;3.03;2.90;;;16.40;79.60;;;;;;5094147;28;20269;-69
2021/10/18 12:46:55;;;;;;;3.30;2.80;;;16.40;79.00;;;;;;5081212;28;20205;-70
2021/10/18 12:49:28;;;;;;;2.40;2.30;;;16.30;79.20;;;;;;5076535;28;20242;-69
2021/10/18 12:51:54;;;;;;;2.22;2.13;;;16.00;78.40;;;;;;5078299;28;20189;-69
2021/10/18 12:54:22;;;;;;;2.40;2.30;;;15.90;79.10;;;;;;5093308;28;20174;-69
2021/10/18 12:57:14;;;;;;;2.65;2.13;;;15.80;79.20;;;;;;5094843;28;20662;-70
2021/10/18 13:00:01;;;;;;;2.05;1.95;;;15.60;79.40;;;;;;5095529;28;20185;-70
2021/10/18 13:02:29;;;;;;;2.40;2.30;;;15.80;81.00;;;;;;5089652;28;20212;-70
2021/10/18 13:05:30;;;;;;;3.33;3.13;;;16.10;80.60;;;;;;5073244;28;20691;-70
2021/10/18 13:07:57;;;;;;;3.42;3.17;;;16.30;79.10;;;;;;4989181;28;20717;-69
2021/10/18 13:10:29;;;;;;;4.10;3.17;;;16.60;79.80;;;;;;5003256;28;20192;-70
2021/10/18 13:12:56;;;;;;;5.65;3.42;;;17.10;79.80;;;;;;4987320;28;20272;-70
2021/10/18 13:15:22;;;;;;;3.05;2.85;;;17.80;78.80;;;;;;4986885;28;20173;-69
2021/10/18 13:17:48;;;;;;;3.85;3.55;;;18.50;75.10;;;;;;4988386;28;20200;-70
2021/10/18 13:20:17;;;;;;;3.20;3.00;;;18.90;73.80;;;;;;5003659;28;20185;-70
2021/10/18 13:22:45;;;;;;;4.22;3.83;;;19.30;72.10;;;;;;5004673;28;20192;-70
2021/10/18 13:25:13;;;;;;;4.25;3.95;;;19.50;73.00;;;;;;4985505;28;20657;-70
2021/10/18 13:27:39;;;;;;;3.35;3.10;;;19.90;73.30;;;;;;4988509;28;20177;-70
2021/10/18 13:30:07;;;;;;;4.85;3.70;;;20.40;72.50;;;;;;5002231;28;20197;-70
2021/10/18 13:32:37;;;;;;;4.15;3.72;;;20.80;70.20;;;;;;5003311;28;20177;-70
2021/10/18 13:35:05;;;;;;;3.00;2.90;;;21.10;69.80;;;;;;5003209;28;20207;-70
2021/10/18 13:37:30;;;;;;;3.78;3.50;;;21.40;70.30;;;;;;5003450;28;20255;-70
2021/10/18 13:39:56;;;;;;;3.47;3.28;;;21.80;70.20;;;;;;5002451;28;20189;-70
2021/10/18 13:42:22;;;;;;;3.80;3.55;;;22.00;67.70;;;;;;4989036;28;20185;-70
2021/10/18 13:44:48;;;;;;;5.22;3.75;;;22.10;67.20;;;;;;5090815;28;20669;-70
2021/10/18 13:47:14;;;;;;;3.78;3.50;;;22.10;67.80;;;;;;5094427;28;20223;-70
2021/10/18 13:49:40;;;;;;;3.63;3.42;;;22.10;65.40;;;;;;5096247;28;20210;-69
2021/10/18 13:52:06;;;;;;;4.03;3.78;;;22.00;66.50;;;;;;5094926;28;20206;-69
2021/10/18 13:54:32;;;;;;;4.10;3.80;;;21.80;67.70;;;;;;5091758;28;20905;-70
2021/10/18 13:56:58;;;;;;;3.63;3.42;;;21.70;67.40;;;;;;5098688;28;20178;-69
2021/10/18 13:59:24;;;;;;;3.63;3.50;;;21.70;68.40;;;;;;5077722;28;20193;-73